EST,Max TemperatureF,Mean TemperatureF,Min TemperatureF,Max Dew PointF,MeanDew PointF,Min DewpointF,Max Humidity, Mean Humidity, Min Humidity, Max Sea Level PressureIn, Mean Sea Level PressureIn, Min Sea Level PressureIn, Max VisibilityMiles, Mean VisibilityMiles, Min VisibilityMiles, Max Wind SpeedMPH, Mean Wind SpeedMPH, Max Gust SpeedMPH,PrecipitationIn, CloudCover, Events, WindDirDegrees
2013-12-1,55,48,41,35,32,27,73,60,46,30.21,30.10,29.98,10,10,10,10,4,15,0.00,6,,192
2013-12-2,56,47,37,41,37,33,85,70,54,29.96,29.85,29.77,10,10,10,8,1,12,0.00,3,,160
2013-12-3,58,49,40,49,46,37,96,84,72,29.86,29.81,29.78,10,7,0,9,3,13,0.00,6,Fog,146
2013-12-4,71,60,49,58,53,47,100,81,61,29.84,29.79,29.70,10,8,2,15,6,22,0.00,6,,162
2013-12-5,69,52,34,63,46,30,89,78,66,30.19,29.97,29.79,10,6,1,23,9,29,0.67,8,Rain-Thunderstorm,298
2013-12-6,34,31,27,30,27,24,92,89,85,30.43,30.24,30.15,10,4,0,15,8,21,0.77,8,Fog-Rain-Snow,354
2013-12-7,28,23,18,24,20,15,92,84,75,30.63,30.56,30.43,10,8,6,13,7,18,0.00,4,,1
2013-12-8,33,29,24,32,26,18,100,87,74,30.48,30.19,30.05,10,4,0,10,4,15,0.17,8,Fog-Rain-Snow,65
2013-12-9,33,30,26,32,25,17,96,82,68,30.28,30.20,30.06,10,9,2,15,7,20,0.00,6,,262
2013-12-10,31,26,20,20,19,16,92,75,58,30.41,30.28,30.20,10,7,2,15,6,20,0.01,5,Snow,289
2013-12-11,37,28,18,24,19,14,92,73,54,30.57,30.45,30.36,10,9,5,20,7,25,0.00,3,,277
2013-12-12,28,20,12,16,9,4,84,59,34,30.64,30.54,30.40,10,10,7,10,5,13,0.00,0,,251
2013-12-13,43,32,21,33,21,11,92,64,36,30.40,30.27,30.15,10,9,2,14,3,18,0.03,3,Rain-Snow,182
2013-12-14,42,38,34,41,36,32,100,93,85,30.12,29.89,29.74,10,7,1,18,7,23,0.44,8,Rain-Snow,185
2013-12-15,35,32,28,30,25,21,89,79,69,30.18,30.10,29.96,10,10,5,18,10,25,0.00,8,,265
2013-12-16,45,38,31,33,30,26,89,76,62,30.16,30.09,30.03,10,9,7,12,4,16,0.00,5,,203
2013-12-17,42,36,30,36,29,24,89,77,64,30.25,30.12,30.02,10,8,3,15,7,21,T,5,,274
2013-12-18,44,34,24,25,19,14,88,59,30,30.35,30.25,30.11,10,10,5,10,5,14,0.00,0,,201
2013-12-19,62,51,40,43,31,17,61,47,33,30.14,30.07,29.99,10,10,10,20,8,29,0.00,2,,192
2013-12-20,64,58,51,58,47,34,90,67,43,29.98,29.92,29.86,10,10,8,15,9,23,0.04,8,Rain,182
2013-12-21,70,65,59,63,60,57,97,88,78,29.85,29.70,29.48,10,5,1,35,9,54,2.61,8,Rain-Thunderstorm,187
2013-12-22,62,50,38,59,47,33,92,83,74,30.12,29.86,29.60,10,10,6,25,11,33,0.26,7,Rain,239
2013-12-23,39,33,27,34,24,17,89,73,56,30.46,30.33,30.14,10,10,6,22,10,25,0.02,7,Rain-Snow,303
2013-12-24,28,22,16,21,10,3,75,59,42,30.62,30.54,30.44,10,10,4,18,6,22,T,3,Snow,308
2013-12-25,40,30,19,21,15,11,73,55,37,30.48,30.38,30.26,10,10,10,12,4,14,0.00,4,,199
2013-12-26,42,37,31,26,24,22,72,59,45,30.43,30.36,30.25,10,10,10,17,5,23,0.00,4,,251
2013-12-27,52,39,25,27,25,21,81,60,38,30.46,30.40,30.36,10,10,9,12,2,15,0.00,0,,213
2013-12-28,49,38,27,36,26,22,78,60,42,30.34,30.24,30.05,10,10,9,10,3,14,0.05,1,Rain,170
2013-12-29,49,40,31,40,35,27,93,82,71,30.12,29.96,29.87,10,7,2,23,8,30,0.45,8,Rain,263
2013-12-30,32,28,24,27,20,12,85,72,58,30.31,30.23,30.13,10,10,9,16,6,18,0.00,6,,281
2013-12-31,38,31,23,21,17,14,69,57,44,30.45,30.34,30.25,10,10,10,15,6,20,0.00,2,,218